Time;durP1;ratioP1;P1;durP2;ratioP2;P2;SDS_P1;SDS_P2;PMS_P1;PMS_P2;Temp;Humidity;BMP_temperature;BMP_pressure;BME280_temperature;BME280_humidity;BME280_pressure;Samples;Min_cycle;Max_cycle;Signal;HPM_P1;HPM_P2
2022/07/24 00:01:25;;;;;;;6.45;3.92;;;;;;;21.54;53.43;100757.00;5033858;28;20081;-71
2022/07/24 00:03:51;;;;;;;5.05;3.70;;;;;;;21.48;53.45;100754.00;5033670;28;20056;-72
2022/07/24 00:06:20;;;;;;;4.30;3.50;;;;;;;21.52;53.39;100750.91;5033957;28;20489;-71
2022/07/24 00:08:47;;;;;;;4.13;3.38;;;;;;;21.50;53.63;100762.78;5031258;28;20077;-72
2022/07/24 00:11:14;;;;;;;6.47;3.95;;;;;;;21.48;53.55;100759.38;5027539;28;20053;-73
2022/07/24 00:13:40;;;;;;;3.95;3.40;;;;;;;21.47;53.60;100754.97;5036094;28;20123;-71
2022/07/24 00:16:07;;;;;;;3.47;3.17;;;;;;;21.35;53.71;100740.72;5026034;28;20095;-71
2022/07/24 00:18:34;;;;;;;4.95;3.70;;;;;;;21.40;53.61;100746.59;5036447;28;20080;-71
2022/07/24 00:21:01;;;;;;;3.60;3.30;;;;;;;21.38;53.82;100753.09;5029316;28;20041;-71
2022/07/24 00:23:27;;;;;;;5.57;3.20;;;;;;;21.30;53.99;100745.66;5034915;28;20133;-71
2022/07/24 00:25:54;;;;;;;4.93;3.53;;;;;;;21.29;54.09;100755.56;5033027;28;20049;-71
2022/07/24 00:28:21;;;;;;;4.68;3.47;;;;;;;21.26;54.19;100757.66;5031865;28;20045;-70
2022/07/24 00:30:48;;;;;;;6.15;3.15;;;;;;;21.22;54.30;100759.78;5034774;28;20043;-70
2022/07/24 00:33:17;;;;;;;4.10;3.53;;;;;;;21.22;54.16;100765.19;5028497;28;20822;-70
2022/07/24 00:35:43;;;;;;;5.70;3.47;;;;;;;21.19;54.13;100748.38;5031156;28;20129;-70
2022/07/24 00:38:10;;;;;;;3.60;3.00;;;;;;;21.16;54.23;100760.28;5027523;28;20049;-71
2022/07/24 00:40:36;;;;;;;8.18;3.97;;;;;;;21.13;54.49;100756.97;5029402;28;20053;-71
2022/07/24 00:43:03;;;;;;;4.03;3.63;;;;;;;20.99;54.80;100734.78;5033352;28;20045;-70
2022/07/24 00:45:30;;;;;;;6.32;3.63;;;;;;;21.07;54.95;100753.00;5031183;28;20115;-70
2022/07/24 00:47:57;;;;;;;3.78;3.20;;;;;;;21.03;54.80;100743.47;5031474;28;20052;-70
2022/07/24 00:50:25;;;;;;;4.38;3.40;;;;;;;21.04;54.63;100745.16;5030440;28;20046;-71
2022/07/24 00:52:52;;;;;;;5.75;3.75;;;;;;;20.98;54.74;100737.59;5032799;28;20041;-72
2022/07/24 00:55:20;;;;;;;5.88;3.40;;;;;;;20.96;54.66;100734.19;5030495;28;20130;-70
2022/07/24 00:57:48;;;;;;;6.07;3.58;;;;;;;20.93;55.00;100738.00;5031273;28;20041;-70
2022/07/24 01:00:17;;;;;;;5.55;3.35;;;;;;;20.95;55.11;100745.94;5033611;28;20053;-70
2022/07/24 01:02:44;;;;;;;5.13;3.33;;;;;;;20.98;55.18;100749.22;5031527;28;20060;-70
2022/07/24 01:05:13;;;;;;;3.88;3.03;;;;;;;20.98;55.09;100743.84;5032192;28;20053;-71
2022/07/24 01:07:40;;;;;;;4.55;3.22;;;;;;;20.97;55.07;100735.91;5029104;28;20091;-70
2022/07/24 01:10:07;;;;;;;5.38;3.20;;;;;;;20.92;55.30;100736.31;5024080;28;20120;-70
2022/07/24 01:12:36;;;;;;;3.40;3.03;;;;;;;20.82;55.68;100721.91;5028039;28;20057;-71
2022/07/24 01:15:05;;;;;;;4.50;3.40;;;;;;;20.87;55.52;100729.59;5030881;28;20068;-72
2022/07/24 01:17:35;;;;;;;3.85;3.55;;;;;;;20.81;55.50;100717.50;5033901;28;20081;-72
2022/07/24 01:20:04;;;;;;;4.53;3.45;;;;;;;20.91;55.30;100731.03;5028295;28;20450;-70
2022/07/24 01:22:32;;;;;;;3.70;2.88;;;;;;;20.89;55.52;100736.56;5033873;28;20420;-70
2022/07/24 01:24:59;;;;;;;4.70;3.63;;;;;;;20.74;55.52;100705.56;5027574;28;20049;-71
2022/07/24 01:27:25;;;;;;;4.75;3.53;;;;;;;20.83;55.50;100725.44;5026692;28;20046;-71
2022/07/24 01:29:52;;;;;;;5.00;3.58;;;;;;;20.69;55.71;100701.53;5032587;28;20127;-71
2022/07/24 01:32:19;;;;;;;4.05;3.10;;;;;;;20.74;55.67;100721.69;5030176;28;20069;-70
2022/07/24 01:34:45;;;;;;;4.28;3.28;;;;;;;20.58;55.95;100714.06;5028805;28;20138;-71
2022/07/24 01:37:12;;;;;;;4.15;3.30;;;;;;;20.63;55.97;100719.03;5027368;28;20045;-72
2022/07/24 01:39:39;;;;;;;4.18;3.30;;;;;;;20.62;56.15;100726.25;5034347;28;20045;-71
2022/07/24 01:42:06;;;;;;;4.15;3.20;;;;;;;20.64;56.68;100737.75;5028680;28;20096;-70
2022/07/24 01:44:32;;;;;;;3.78;3.38;;;;;;;20.64;56.10;100729.69;5035498;28;20092;-70
2022/07/24 01:46:59;;;;;;;3.33;3.03;;;;;;;20.64;55.77;100720.75;5026900;28;20092;-70
2022/07/24 01:49:26;;;;;;;3.38;3.00;;;;;;;20.76;56.07;100729.66;5027849;28;20502;-70
2022/07/24 01:51:52;;;;;;;5.60;3.40;;;;;;;20.75;55.75;100730.63;5026152;28;20073;-72
2022/07/24 01:54:19;;;;;;;3.08;2.88;;;;;;;20.75;55.62;100723.41;5026645;28;20076;-70
2022/07/24 01:56:45;;;;;;;3.90;3.50;;;;;;;20.75;55.82;100726.09;5029433;28;20114;-72
2022/07/24 01:59:12;;;;;;;5.18;3.40;;;;;;;20.76;55.77;100735.03;5026723;28;20124;-72
2022/07/24 02:01:39;;;;;;;4.00;3.15;;;;;;;20.73;55.78;100724.53;5032314;28;20040;-72
2022/07/24 02:04:06;;;;;;;5.32;3.40;;;;;;;20.74;55.93;100723.53;5023777;28;20053;-71
2022/07/24 02:06:33;;;;;;;4.40;3.53;;;;;;;20.62;56.21;100703.88;5028095;28;20057;-72
2022/07/24 02:09:00;;;;;;;5.22;3.70;;;;;;;20.78;56.08;100727.69;5027153;28;20087;-72
2022/07/24 02:11:27;;;;;;;3.67;3.15;;;;;;;20.75;55.98;100736.88;5026688;28;20136;-70
2022/07/24 02:13:55;;;;;;;4.57;3.50;;;;;;;20.73;56.01;100729.91;5028484;28;20537;-70
2022/07/24 02:16:21;;;;;;;5.95;3.10;;;;;;;20.67;56.08;100734.81;5031055;28;20061;-70
2022/07/24 02:18:48;;;;;;;3.40;3.08;;;;;;;20.59;55.99;100717.59;5025894;28;20100;-72
2022/07/24 02:21:15;;;;;;;5.10;3.55;;;;;;;20.60;56.41;100736.31;5029915;28;20133;-70
2022/07/24 02:23:41;;;;;;;5.25;3.30;;;;;;;20.62;56.35;100733.47;5031053;28;20053;-70
2022/07/24 02:26:08;;;;;;;3.50;3.20;;;;;;;20.59;56.17;100733.75;5026825;28;20081;-70
2022/07/24 02:28:35;;;;;;;4.57;3.00;;;;;;;20.41;56.48;100706.53;5029719;28;20056;-71
2022/07/24 02:31:01;;;;;;;4.15;3.30;;;;;;;20.54;56.46;100730.56;5028159;28;20057;-70
2022/07/24 02:33:28;;;;;;;3.45;3.15;;;;;;;20.51;56.99;100720.91;5025276;28;20046;-72
2022/07/24 02:35:55;;;;;;;5.80;3.75;;;;;;;20.50;56.89;100734.50;5029439;28;20056;-71
2022/07/24 02:38:21;;;;;;;4.57;3.42;;;;;;;20.34;56.91;100702.59;5025231;28;20128;-70
2022/07/24 02:40:48;;;;;;;3.60;3.05;;;;;;;20.40;57.21;100718.28;5029531;28;20103;-70
2022/07/24 02:43:15;;;;;;;5.00;3.30;;;;;;;20.29;57.03;100694.94;5032088;28;20053;-69
2022/07/24 02:45:41;;;;;;;4.95;3.63;;;;;;;20.33;57.49;100725.09;5030235;28;20057;-71
2022/07/24 02:48:08;;;;;;;4.82;3.83;;;;;;;20.15;57.98;100707.78;5026028;28;20048;-71
2022/07/24 02:50:38;;;;;;;5.88;3.50;;;;;;;20.20;58.50;100727.09;5036978;28;20103;-70
2022/07/24 02:53:06;;;;;;;5.13;3.28;;;;;;;20.16;58.63;100734.53;5032919;28;20060;-72
2022/07/24 02:55:32;;;;;;;5.05;3.63;;;;;;;20.10;58.92;100734.22;5035377;28;20136;-71
2022/07/24 02:57:59;;;;;;;5.82;3.63;;;;;;;20.09;59.23;100741.41;5033322;28;20508;-71
2022/07/24 03:00:26;;;;;;;5.70;3.88;;;;;;;19.95;59.33;100712.13;5032521;28;20041;-71
2022/07/24 03:02:53;;;;;;;3.80;3.47;;;;;;;20.11;59.37;100735.91;5033896;28;20493;-71
2022/07/24 03:05:19;;;;;;;4.50;3.63;;;;;;;20.07;59.14;100737.16;5036438;28;20077;-71
2022/07/24 03:07:46;;;;;;;4.80;3.90;;;;;;;20.06;59.66;100730.06;5027742;28;20049;-70
2022/07/24 03:10:15;;;;;;;4.95;3.80;;;;;;;19.94;59.61;100716.63;5029446;28;20045;-71
2022/07/24 03:12:41;;;;;;;5.60;4.10;;;;;;;20.06;59.61;100730.91;5028361;28;20132;-71
2022/07/24 03:15:09;;;;;;;4.75;3.88;;;;;;;20.08;59.76;100733.47;5028966;28;20387;-71
2022/07/24 03:17:36;;;;;;;3.90;3.58;;;;;;;20.12;59.79;100732.25;5028215;28;20067;-71
2022/07/24 03:20:04;;;;;;;4.30;3.90;;;;;;;20.17;59.69;100738.09;5028546;28;20081;-72
2022/07/24 03:22:30;;;;;;;5.20;3.85;;;;;;;20.14;59.49;100738.38;5028438;28;20172;-71
2022/07/24 03:24:57;;;;;;;5.25;3.95;;;;;;;20.11;59.86;100738.59;5027597;28;20091;-70
2022/07/24 03:27:24;;;;;;;4.70;4.20;;;;;;;19.96;59.85;100720.06;5025338;28;20490;-72
2022/07/24 03:29:50;;;;;;;6.05;4.10;;;;;;;20.07;60.05;100745.22;5028832;28;20089;-71
2022/07/24 03:32:17;;;;;;;5.80;4.20;;;;;;;19.89;60.08;100718.84;5028917;28;20065;-71
2022/07/24 03:34:43;;;;;;;5.38;4.10;;;;;;;19.98;60.14;100748.66;5028231;28;20049;-71
2022/07/24 03:37:10;;;;;;;5.63;4.43;;;;;;;19.86;60.54;100715.53;5028327;28;20069;-71
2022/07/24 03:39:37;;;;;;;4.90;4.32;;;;;;;19.85;60.59;100727.25;5027583;28;20107;-71
2022/07/24 03:42:03;;;;;;;7.53;4.10;;;;;;;20.01;60.34;100749.22;5028446;28;20041;-71
2022/07/24 03:44:30;;;;;;;5.38;4.25;;;;;;;20.02;60.13;100750.09;5028689;28;20386;-71
2022/07/24 03:46:56;;;;;;;5.40;4.07;;;;;;;19.99;60.33;100751.19;5027096;28;20516;-70
2022/07/24 03:49:23;;;;;;;4.35;3.95;;;;;;;20.01;60.34;100748.38;5028111;28;20465;-70
2022/07/24 03:51:50;;;;;;;5.13;4.03;;;;;;;19.95;60.54;100739.00;5028439;28;20045;-71
2022/07/24 03:54:20;;;;;;;5.15;4.20;;;;;;;19.96;60.64;100743.41;5025272;28;20095;-70
2022/07/24 03:56:46;;;;;;;5.57;4.43;;;;;;;19.95;60.78;100747.06;5027610;28;20441;-70
2022/07/24 03:59:13;;;;;;;4.47;3.80;;;;;;;19.92;60.90;100742.78;5026915;28;20104;-71
2022/07/24 04:01:39;;;;;;;6.55;4.20;;;;;;;19.99;60.30;100751.19;5028109;28;20076;-72
2022/07/24 04:04:06;;;;;;;4.32;3.90;;;;;;;19.98;60.08;100748.66;5055326;28;20164;-71
2022/07/24 04:06:34;;;;;;;6.70;4.18;;;;;;;19.95;60.35;100755.13;5028535;28;20113;-70
2022/07/24 04:09:02;;;;;;;4.68;4.28;;;;;;;19.82;61.04;100738.28;5033758;28;20843;-71
2022/07/24 04:11:29;;;;;;;5.32;4.20;;;;;;;19.89;60.85;100759.16;5030785;28;20494;-70
2022/07/24 04:13:55;;;;;;;5.30;3.90;;;;;;;19.85;61.33;100756.81;5035004;28;20045;-71
2022/07/24 04:16:22;;;;;;;4.88;3.90;;;;;;;19.89;61.30;100759.16;5032493;28;20081;-70
2022/07/24 04:18:49;;;;;;;4.53;4.13;;;;;;;19.91;61.14;100762.56;5038853;28;20132;-70
2022/07/24 04:21:16;;;;;;;5.53;4.10;;;;;;;19.87;61.12;100762.94;5031043;28;20088;-71
2022/07/24 04:23:42;;;;;;;7.30;4.63;;;;;;;19.84;61.01;100752.41;5024005;28;20049;-70
2022/07/24 04:26:09;;;;;;;4.90;4.25;;;;;;;19.75;61.43;100748.66;5029887;28;20049;-72
2022/07/24 04:28:36;;;;;;;5.45;4.38;;;;;;;19.67;61.02;100726.91;5038665;28;20529;-73
2022/07/24 04:31:03;;;;;;;7.47;4.53;;;;;;;19.64;61.74;100724.47;5036167;28;20504;-71
2022/07/24 04:33:29;;;;;;;7.82;3.90;;;;;;;19.76;61.38;100757.56;5031954;28;20048;-72
2022/07/24 04:35:56;;;;;;;5.72;4.35;;;;;;;19.71;61.80;100752.53;5033838;28;20111;-70
2022/07/24 04:38:23;;;;;;;5.53;4.53;;;;;;;19.70;62.17;100745.47;5037532;28;20664;-71
2022/07/24 04:40:49;;;;;;;6.45;4.55;;;;;;;19.72;62.08;100748.88;5032140;28;20493;-70
2022/07/24 04:43:16;;;;;;;5.50;4.35;;;;;;;19.68;62.44;100746.56;5059586;28;20568;-71
2022/07/24 04:45:44;;;;;;;6.00;4.72;;;;;;;19.69;62.18;100751.81;5031764;28;20118;-70
2022/07/24 04:48:10;;;;;;;5.32;4.80;;;;;;;19.65;62.93;100747.69;5033018;28;20399;-70
2022/07/24 04:50:37;;;;;;;5.00;4.50;;;;;;;19.55;63.09;100735.94;5035302;28;20052;-71
2022/07/24 04:53:03;;;;;;;5.55;4.60;;;;;;;19.74;62.78;100756.81;5036600;28;20056;-71
2022/07/24 04:55:30;;;;;;;5.40;4.70;;;;;;;19.79;62.87;100743.88;5031630;28;20057;-70
2022/07/24 04:57:57;;;;;;;5.93;4.78;;;;;;;19.83;62.33;100743.50;5035030;28;20090;-72
2022/07/24 05:00:23;;;;;;;6.35;4.53;;;;;;;19.89;62.26;100747.53;5028423;28;20053;-70
2022/07/24 05:02:50;;;;;;;5.10;4.45;;;;;;;19.92;62.19;100748.16;5030710;28;20106;-70
2022/07/24 05:05:17;;;;;;;5.63;4.57;;;;;;;19.89;61.84;100748.41;5029147;28;20084;-70
2022/07/24 05:07:43;;;;;;;5.18;4.28;;;;;;;19.82;62.43;100744.50;5025929;28;20054;-70
2022/07/24 05:10:10;;;;;;;4.65;4.25;;;;;;;19.83;62.73;100756.13;5033799;28;20053;-70
2022/07/24 05:12:37;;;;;;;6.35;4.82;;;;;;;19.87;62.89;100757.56;5027163;28;20088;-71
2022/07/24 05:15:05;;;;;;;5.63;4.60;;;;;;;19.91;62.80;100757.19;5030417;28;20053;-72
2022/07/24 05:17:34;;;;;;;5.15;4.40;;;;;;;20.04;62.00;100757.06;5034193;28;20107;-71
2022/07/24 05:20:00;;;;;;;5.55;4.45;;;;;;;19.98;62.12;100741.44;5028927;28;20171;-71
2022/07/24 05:22:27;;;;;;;4.78;4.25;;;;;;;20.08;62.20;100746.91;5030528;28;20050;-72
2022/07/24 05:24:54;;;;;;;6.65;4.95;;;;;;;20.18;61.92;100756.78;5027372;28;20046;-71
2022/07/24 05:27:20;;;;;;;5.70;4.35;;;;;;;20.18;61.76;100731.72;5029623;28;20115;-71
2022/07/24 05:29:47;;;;;;;6.28;3.92;;;;;;;20.40;62.03;100760.47;5033497;28;20192;-71
2022/07/24 05:32:14;;;;;;;5.45;4.47;;;;;;;20.46;61.01;100752.72;5028464;28;20068;-71
2022/07/24 05:34:40;;;;;;;5.45;4.50;;;;;;;20.45;61.08;100742.97;5030587;28;20534;-71
2022/07/24 05:37:08;;;;;;;5.97;4.38;;;;;;;20.60;60.79;100763.22;5029380;28;20140;-71
2022/07/24 05:39:35;;;;;;;5.40;4.30;;;;;;;20.66;60.50;100768.06;5028023;28;20065;-71
2022/07/24 05:42:03;;;;;;;5.40;4.50;;;;;;;20.69;59.98;100766.97;5027654;28;20099;-70
2022/07/24 05:44:31;;;;;;;5.03;4.07;;;;;;;20.72;60.05;100755.09;5034765;28;20512;-72
2022/07/24 05:46:57;;;;;;;6.63;3.90;;;;;;;20.99;59.46;100768.94;5027507;28;20115;-72
2022/07/24 05:49:24;;;;;;;6.55;4.53;;;;;;;21.10;58.78;100763.47;5032441;28;20056;-71
2022/07/24 05:51:52;;;;;;;7.85;4.43;;;;;;;21.19;58.02;100762.75;5033129;28;20052;-71
2022/07/24 05:54:18;;;;;;;4.57;3.85;;;;;;;21.21;57.84;100768.00;5029952;28;20096;-71
2022/07/24 05:56:45;;;;;;;4.90;4.40;;;;;;;21.14;58.27;100756.84;5034394;28;20098;-71
2022/07/24 05:59:12;;;;;;;6.13;4.38;;;;;;;21.14;58.11;100756.84;5023602;28;20073;-71
2022/07/24 06:01:38;;;;;;;5.55;4.32;;;;;;;21.19;58.93;100768.13;5032345;28;20076;-70
2022/07/24 06:04:05;;;;;;;4.47;4.07;;;;;;;21.25;58.10;100770.28;5033884;28;20056;-70
2022/07/24 06:06:32;;;;;;;4.65;3.88;;;;;;;21.34;58.69;100771.34;5029989;28;20123;-71
2022/07/24 06:08:59;;;;;;;4.50;3.80;;;;;;;21.18;60.49;100769.09;5024700;28;22721;-72
2022/07/24 06:11:25;;;;;;;5.05;3.83;;;;;;;21.04;60.97;100761.31;5030329;28;20045;-72
2022/07/24 06:13:53;;;;;;;6.18;4.32;;;;;;;21.02;60.93;100774.06;5027738;28;20041;-72
2022/07/24 06:16:22;;;;;;;6.67;4.23;;;;;;;21.01;59.30;100762.44;5029955;28;20052;-71
2022/07/24 06:18:49;;;;;;;6.07;3.97;;;;;;;21.11;58.11;100754.41;5030261;28;20053;-71
2022/07/24 06:21:15;;;;;;;5.45;4.20;;;;;;;21.38;57.67;100762.03;5028408;28;20120;-71
2022/07/24 06:23:42;;;;;;;5.10;4.28;;;;;;;21.65;56.82;100769.53;5032119;28;20125;-72
2022/07/24 06:26:09;;;;;;;6.50;4.00;;;;;;;21.89;56.28;100769.22;5032701;28;20428;-71
2022/07/24 06:28:35;;;;;;;5.30;3.80;;;;;;;22.21;55.02;100775.31;5036819;28;20080;-71
2022/07/24 06:31:02;;;;;;;4.20;3.80;;;;;;;22.52;54.15;100767.16;5037510;28;20065;-71
2022/07/24 06:33:29;;;;;;;4.57;4.18;;;;;;;22.89;52.78;100765.53;5036117;28;20068;-71
2022/07/24 06:35:55;;;;;;;5.53;3.53;;;;;;;23.24;50.91;100753.28;5038984;28;20080;-70
2022/07/24 06:38:22;;;;;;;5.03;3.40;;;;;;;23.50;50.24;100750.81;5037205;28;20133;-71
2022/07/24 06:40:51;;;;;;;3.58;3.28;;;;;;;23.93;49.56;100755.66;5034215;28;20073;-70
2022/07/24 06:43:18;;;;;;;4.55;3.63;;;;;;;24.32;48.67;100757.19;5039951;28;20119;-71
2022/07/24 06:45:44;;;;;;;4.43;3.58;;;;;;;24.44;46.79;100736.19;5031485;28;20045;-70
2022/07/24 06:48:11;;;;;;;4.32;3.55;;;;;;;24.66;46.85;100743.88;5035560;28;20118;-71
2022/07/24 06:50:38;;;;;;;6.93;3.30;;;;;;;24.73;46.46;100741.38;5036798;28;20091;-71
2022/07/24 06:53:04;;;;;;;3.88;3.47;;;;;;;25.00;45.54;100751.31;5037535;28;20068;-70
2022/07/24 06:55:31;;;;;;;3.83;3.42;;;;;;;25.10;46.11;100733.97;5038486;28;20041;-71
2022/07/24 06:57:58;;;;;;;4.43;3.75;;;;;;;25.18;45.01;100739.44;5031979;28;20061;-71
2022/07/24 07:00:25;;;;;;;4.00;3.63;;;;;;;25.27;45.42;100747.63;5033949;28;20068;-70
2022/07/24 07:02:52;;;;;;;4.25;3.47;;;;;;;25.28;45.78;100739.34;5037072;28;20150;-71
2022/07/24 07:05:18;;;;;;;3.38;3.08;;;;;;;25.55;45.11;100740.19;5034660;28;20072;-72
2022/07/24 07:07:45;;;;;;;5.00;3.28;;;;;;;25.88;43.73;100741.25;5034430;28;20069;-71
2022/07/24 07:10:12;;;;;;;4.03;3.42;;;;;;;25.95;43.21;100737.75;5035982;28;20054;-70
2022/07/24 07:12:39;;;;;;;4.68;3.47;;;;;;;25.92;43.66;100738.06;5039443;28;20080;-71
2022/07/24 07:15:09;;;;;;;5.55;3.30;;;;;;;25.97;44.81;100735.72;5034893;28;20045;-71
2022/07/24 07:17:38;;;;;;;3.95;3.60;;;;;;;26.15;42.51;100733.72;5039238;28;20146;-71
2022/07/24 07:20:06;;;;;;;3.92;3.47;;;;;;;26.26;43.46;100732.59;5033314;28;20052;-70
2022/07/24 07:22:33;;;;;;;4.10;3.30;;;;;;;26.25;43.73;100736.31;5036662;28;20433;-71
2022/07/24 07:24:59;;;;;;;5.15;3.47;;;;;;;26.12;43.60;100733.22;5036628;28;20049;-71
2022/07/24 07:27:27;;;;;;;4.55;3.63;;;;;;;26.06;44.63;100731.16;5034802;28;20052;-70
2022/07/24 07:29:53;;;;;;;5.32;3.72;;;;;;;26.12;43.51;100734.09;5030706;28;20053;-71
2022/07/24 07:32:20;;;;;;;4.55;3.40;;;;;;;26.40;43.48;100736.56;5033123;28;20049;-71
2022/07/24 07:34:47;;;;;;;3.83;3.47;;;;;;;26.38;43.51;100733.16;5031977;28;20052;-71
2022/07/24 07:37:14;;;;;;;4.80;3.78;;;;;;;26.33;44.24;100733.66;5033130;28;20052;-71
2022/07/24 07:39:41;;;;;;;6.70;3.55;;;;;;;26.49;43.81;100743.69;5033145;28;20040;-71
2022/07/24 07:42:08;;;;;;;4.28;3.30;;;;;;;26.65;43.58;100735.59;5028622;28;20045;-71
2022/07/24 07:44:35;;;;;;;5.40;3.53;;;;;;;26.86;42.21;100733.25;5034474;28;20038;-71
2022/07/24 07:47:01;;;;;;;6.70;3.70;;;;;;;26.95;42.39;100725.09;5028898;28;20423;-71
2022/07/24 07:49:28;;;;;;;3.25;3.05;;;;;;;27.06;41.82;100735.66;5029425;28;20041;-71
2022/07/24 07:51:55;;;;;;;4.38;3.22;;;;;;;27.30;41.94;100729.34;5040600;28;20049;-72
2022/07/24 07:54:22;;;;;;;3.83;3.45;;;;;;;27.16;41.60;100722.72;5030401;28;20520;-72
2022/07/24 07:56:48;;;;;;;3.83;3.45;;;;;;;27.05;41.38;100737.53;5036168;28;20131;-71
2022/07/24 07:59:15;;;;;;;5.40;3.85;;;;;;;26.88;42.21;100736.66;5028886;28;20041;-71
2022/07/24 08:01:42;;;;;;;4.50;3.60;;;;;;;27.01;42.69;100738.88;5032548;28;20694;-71
2022/07/24 08:04:08;;;;;;;6.07;3.83;;;;;;;27.20;41.70;100741.25;5039352;28;20162;-71
2022/07/24 08:06:35;;;;;;;4.70;3.30;;;;;;;27.64;39.69;100743.59;5033366;28;20144;-71
2022/07/24 08:09:03;;;;;;;5.05;3.45;;;;;;;28.01;39.47;100740.25;5025547;28;20052;-71
2022/07/24 08:11:31;;;;;;;3.90;3.47;;;;;;;28.52;38.26;100740.66;5030524;28;20053;-71
2022/07/24 08:13:57;;;;;;;5.13;3.22;;;;;;;28.85;36.49;100738.59;5033263;28;20037;-71
2022/07/24 08:16:24;;;;;;;4.45;3.72;;;;;;;28.65;37.52;100738.19;5035345;28;20061;-71
2022/07/24 08:18:51;;;;;;;4.13;3.70;;;;;;;27.54;39.17;100738.31;5034555;28;20062;-71
2022/07/24 08:21:18;;;;;;;3.83;3.40;;;;;;;27.02;40.89;100731.56;5033247;28;20641;-71
2022/07/24 08:23:46;;;;;;;5.22;4.13;;;;;;;26.64;41.64;100727.59;5034643;28;20046;-71
2022/07/24 08:26:12;;;;;;;3.97;3.58;;;;;;;26.61;42.36;100730.66;5032431;28;20124;-71
2022/07/24 08:28:39;;;;;;;4.03;3.63;;;;;;;26.89;41.64;100737.50;5030269;28;20181;-70
2022/07/24 08:31:06;;;;;;;5.47;3.80;;;;;;;27.07;41.56;100740.94;5030212;28;20092;-71
2022/07/24 08:33:33;;;;;;;4.95;3.72;;;;;;;27.17;41.06;100743.47;5032449;28;20189;-71
2022/07/24 08:36:00;;;;;;;6.55;3.92;;;;;;;27.22;40.60;100732.94;5036655;28;20119;-71
2022/07/24 08:38:26;;;;;;;4.55;4.15;;;;;;;27.14;41.22;100732.94;5035636;28;20046;-72
2022/07/24 08:40:53;;;;;;;4.32;3.80;;;;;;;27.25;40.69;100724.41;5030739;28;20061;-71
2022/07/24 08:43:20;;;;;;;4.53;4.10;;;;;;;27.70;39.38;100720.28;5032773;28;20046;-71
2022/07/24 08:45:48;;;;;;;5.00;3.78;;;;;;;28.12;39.10;100725.38;5027890;28;20041;-71
2022/07/24 08:48:16;;;;;;;4.63;3.92;;;;;;;28.27;38.94;100719.03;5031728;28;20565;-72
2022/07/24 08:50:44;;;;;;;4.18;3.75;;;;;;;28.51;37.62;100714.44;5029442;28;20128;-72
2022/07/24 08:53:10;;;;;;;4.28;3.70;;;;;;;28.84;36.60;100718.66;5033042;28;20053;-71
2022/07/24 08:55:37;;;;;;;4.70;3.72;;;;;;;28.99;35.75;100713.25;5034429;28;20060;-72
2022/07/24 08:58:04;;;;;;;3.90;3.47;;;;;;;28.95;35.47;100707.34;5029840;28;20111;-70
2022/07/24 09:00:33;;;;;;;5.32;3.75;;;;;;;29.07;36.17;100715.09;5029638;28;20046;-70
2022/07/24 09:02:59;;;;;;;4.00;3.60;;;;;;;29.16;35.61;100725.72;5029425;28;20129;-70
2022/07/24 09:05:27;;;;;;;5.20;3.67;;;;;;;29.02;35.88;100723.81;5032581;28;20532;-71
2022/07/24 09:08:14;;;;;;;4.93;3.60;;;;;;;28.47;37.85;100724.88;5027257;28;20054;-71
2022/07/24 09:10:58;;;;;;;4.43;3.90;;;;;;;28.08;38.02;100716.72;5034440;28;20405;-71
2022/07/24 09:13:29;;;;;;;5.15;4.20;;;;;;;27.71;36.98;100716.50;5028414;28;20056;-71
2022/07/24 09:15:56;;;;;;;5.22;3.70;;;;;;;27.93;37.49;100713.03;5029972;28;20129;-72
2022/07/24 09:18:29;;;;;;;4.82;3.47;;;;;;;28.43;33.78;100707.19;5031267;28;20045;-71
2022/07/24 09:20:58;;;;;;;5.75;4.05;;;;;;;28.63;34.01;100715.75;5028520;28;20580;-71
2022/07/24 09:23:25;;;;;;;8.00;3.97;;;;;;;28.63;34.48;100713.88;5031406;28;20133;-72
2022/07/24 09:25:54;;;;;;;4.22;3.80;;;;;;;28.64;34.11;100712.00;5034759;28;20139;-71
2022/07/24 09:28:21;;;;;;;4.77;4.17;;;;;;;28.69;34.48;100706.84;5028331;28;20049;-71
2022/07/24 09:30:49;;;;;;;5.20;4.15;;;;;;;28.71;33.87;100710.22;5032967;28;20471;-71
2022/07/24 09:33:19;;;;;;;6.63;3.92;;;;;;;28.76;34.36;100707.81;5028663;28;20084;-71
2022/07/24 09:35:49;;;;;;;4.13;3.70;;;;;;;28.73;34.21;100690.97;5032829;28;20050;-71
2022/07/24 09:38:24;;;;;;;4.00;3.70;;;;;;;28.80;33.81;100705.63;5031609;28;20049;-70
2022/07/24 09:40:55;;;;;;;4.75;4.35;;;;;;;28.55;35.34;100700.28;5027720;28;20116;-70
2022/07/24 09:43:34;;;;;;;5.22;4.25;;;;;;;28.55;33.91;100699.44;5033682;28;20045;-71
2022/07/24 09:46:09;;;;;;;6.45;4.13;;;;;;;28.62;33.79;100698.56;5028650;28;20103;-70
2022/07/24 09:48:38;;;;;;;5.80;4.60;;;;;;;28.43;34.42;100693.56;5032480;28;20603;-70
2022/07/24 09:51:16;;;;;;;4.88;4.18;;;;;;;28.31;35.18;100691.44;5027091;28;20493;-70
2022/07/24 09:53:46;;;;;;;4.57;4.13;;;;;;;28.35;34.32;100685.44;5024904;28;20116;-70
2022/07/24 09:56:15;;;;;;;4.63;4.00;;;;;;;28.49;34.35;100694.75;5036391;28;20386;-70
2022/07/24 09:58:45;;;;;;;5.40;4.07;;;;;;;28.70;33.96;100694.06;5028904;28;20075;-71
2022/07/24 10:01:13;;;;;;;;;;;;;;;28.81;33.32;100682.75;5027961;28;20590;-71
2022/07/24 10:03:42;;;;;;;4.30;3.90;;;;;;;28.92;33.03;100688.63;5038665;28;19924;-71
2022/07/24 10:06:12;;;;;;;4.65;3.97;;;;;;;29.05;33.08;100689.88;5033669;28;20379;-69
2022/07/24 10:08:41;;;;;;;5.35;4.13;;;;;;;29.12;32.41;100688.13;5029599;28;20096;-71
2022/07/24 10:11:09;;;;;;;;;;;;;;;29.03;32.56;100691.94;5028315;28;20072;-71
2022/07/24 10:13:36;;;;;;;4.88;4.13;;;;;;;28.91;33.26;100681.47;5033291;28;19921;-71
2022/07/24 10:16:14;;;;;;;4.70;4.30;;;;;;;28.86;33.00;100659.38;5027546;28;20057;-71
2022/07/24 10:18:59;;;;;;;4.97;4.25;;;;;;;28.97;33.01;100683.44;5032913;28;20042;-71
2022/07/24 10:21:28;;;;;;;4.93;4.53;;;;;;;29.04;33.64;100675.41;5032748;28;20045;-71
2022/07/24 10:24:03;;;;;;;7.10;4.72;;;;;;;29.13;33.17;100676.16;5039517;28;20497;-70
2022/07/24 10:26:41;;;;;;;7.97;4.53;;;;;;;29.14;32.98;100677.84;5032439;28;20506;-70
2022/07/24 10:29:12;;;;;;;4.85;4.40;;;;;;;29.13;33.51;100671.53;5035269;28;20076;-71
2022/07/24 10:31:45;;;;;;;5.07;4.53;;;;;;;29.25;34.03;100669.22;5032557;28;20041;-70
2022/07/24 10:34:31;;;;;;;7.68;5.15;;;;;;;29.12;33.86;100667.13;5034544;28;20045;-70
2022/07/24 10:37:16;;;;;;;6.38;4.78;;;;;;;28.76;34.29;100661.47;5029658;28;21274;-72
2022/07/24 10:39:50;;;;;;;5.88;5.30;;;;;;;28.84;34.15;100649.69;5020390;28;20064;-72
2022/07/24 10:42:17;;;;;;;5.97;4.55;;;;;;;29.06;33.78;100651.53;5027714;28;20413;-71
2022/07/24 10:44:44;;;;;;;5.82;5.22;;;;;;;29.21;34.38;100640.63;5021341;28;20529;-71
2022/07/24 10:47:16;;;;;;;6.78;4.90;;;;;;;29.43;34.11;100634.28;5028222;28;20045;-71
2022/07/24 10:49:50;;;;;;;5.68;5.10;;;;;;;29.70;32.96;100640.94;5024558;28;20047;-71
2022/07/24 10:52:32;;;;;;;6.07;5.07;;;;;;;29.79;32.69;100638.94;5023152;28;20045;-72
2022/07/24 10:55:19;;;;;;;6.53;5.32;;;;;;;29.74;32.71;100647.72;5024091;28;20140;-71
2022/07/24 10:58:11;;;;;;;5.97;5.25;;;;;;;29.64;33.09;100631.63;5029448;28;20132;-71
2022/07/24 11:00:40;;;;;;;7.72;5.70;;;;;;;29.67;32.63;100631.25;5030246;28;20064;-72
2022/07/24 11:03:17;;;;;;;;;;;;;;;29.81;33.15;100625.94;5028424;28;20049;-71
2022/07/24 11:06:08;;;;;;;7.90;5.07;;;;;;;29.90;33.12;100619.34;5026646;28;20078;-71
2022/07/24 11:08:40;;;;;;;6.50;4.85;;;;;;;30.06;32.24;100619.16;5027748;28;20045;-71
2022/07/24 11:11:09;;;;;;;5.47;4.97;;;;;;;30.05;31.84;100598.34;5033830;28;20049;-72
2022/07/24 11:13:36;;;;;;;5.57;5.07;;;;;;;30.08;32.60;100617.06;5034215;28;20068;-71
2022/07/24 11:16:15;;;;;;;6.45;5.13;;;;;;;29.89;32.66;100606.75;5040061;28;20055;-71
2022/07/24 11:18:51;;;;;;;6.53;4.97;;;;;;;29.94;32.93;100602.38;5032506;28;20048;-71
2022/07/24 11:21:38;;;;;;;5.43;4.93;;;;;;;29.97;33.59;100601.19;5032386;28;20496;-71
2022/07/24 11:24:13;;;;;;;5.88;5.13;;;;;;;30.12;33.05;100593.78;5031172;28;20224;-71
2022/07/24 11:26:45;;;;;;;6.15;5.32;;;;;;;30.20;32.19;100577.28;5034149;28;20041;-71
2022/07/24 11:29:21;;;;;;;5.70;4.90;;;;;;;30.45;32.12;100587.78;5038679;28;20115;-71
2022/07/24 11:31:53;;;;;;;5.05;4.55;;;;;;;30.54;31.92;100567.47;5027456;28;20076;-71